sensor_id;sensor_type;location;lat;lon;timestamp;temperature;humidity
11501;DHT22;5807;51.606;7.624;2023-07-13T00:00:09;23.70;1.00
11501;DHT22;5807;51.606;7.624;2023-07-13T00:02:36;23.70;1.00
11501;DHT22;5807;51.606;7.624;2023-07-13T00:05:04;23.70;1.00
11501;DHT22;5807;51.606;7.624;2023-07-13T00:07:33;23.70;1.00
11501;DHT22;5807;51.606;7.624;2023-07-13T00:10:00;23.70;1.00
11501;DHT22;5807;51.606;7.624;2023-07-13T00:12:29;23.70;1.00
11501;DHT22;5807;51.606;7.624;2023-07-13T00:14:57;23.70;1.00
11501;DHT22;5807;51.606;7.624;2023-07-13T00:17:25;23.70;1.00
11501;DHT22;5807;51.606;7.624;2023-07-13T00:19:52;23.70;1.00
11501;DHT22;5807;51.606;7.624;2023-07-13T00:22:21;23.70;1.00
11501;DHT22;5807;51.606;7.624;2023-07-13T00:24:51;23.70;1.00
11501;DHT22;5807;51.606;7.624;2023-07-13T00:27:17;23.60;1.00
11501;DHT22;5807;51.606;7.624;2023-07-13T00:29:44;23.60;1.00
11501;DHT22;5807;51.606;7.624;2023-07-13T00:32:11;23.70;1.00
11501;DHT22;5807;51.606;7.624;2023-07-13T00:34:38;23.70;1.00
11501;DHT22;5807;51.606;7.624;2023-07-13T00:37:06;23.70;1.00
11501;DHT22;5807;51.606;7.624;2023-07-13T00:39:34;23.70;1.00
11501;DHT22;5807;51.606;7.624;2023-07-13T00:42:03;23.70;1.00
11501;DHT22;5807;51.606;7.624;2023-07-13T00:44:30;23.70;1.00
11501;DHT22;5807;51.606;7.624;2023-07-13T00:46:57;23.70;1.00
11501;DHT22;5807;51.606;7.624;2023-07-13T00:49:27;23.60;1.00
11501;DHT22;5807;51.606;7.624;2023-07-13T00:51:55;23.60;1.00
11501;DHT22;5807;51.606;7.624;2023-07-13T00:54:33;23.60;1.00
11501;DHT22;5807;51.606;7.624;2023-07-13T00:57:04;23.60;1.00
11501;DHT22;5807;51.606;7.624;2023-07-13T00:59:34;23.60;1.00
11501;DHT22;5807;51.606;7.624;2023-07-13T01:02:02;23.60;1.00
11501;DHT22;5807;51.606;7.624;2023-07-13T01:04:29;23.60;1.00
11501;DHT22;5807;51.606;7.624;2023-07-13T01:06:57;23.60;1.00
11501;DHT22;5807;51.606;7.624;2023-07-13T01:09:27;23.60;1.00
11501;DHT22;5807;51.606;7.624;2023-07-13T01:11:54;23.60;1.00
11501;DHT22;5807;51.606;7.624;2023-07-13T01:14:22;23.50;1.00
11501;DHT22;5807;51.606;7.624;2023-07-13T01:16:49;23.60;1.00
11501;DHT22;5807;51.606;7.624;2023-07-13T01:19:28;23.50;1.00
11501;DHT22;5807;51.606;7.624;2023-07-13T01:22:03;23.50;1.00
11501;DHT22;5807;51.606;7.624;2023-07-13T01:24:30;23.40;1.00
11501;DHT22;5807;51.606;7.624;2023-07-13T01:26:56;23.40;1.00
11501;DHT22;5807;51.606;7.624;2023-07-13T01:29:23;23.50;1.00
11501;DHT22;5807;51.606;7.624;2023-07-13T01:31:50;23.50;1.00
11501;DHT22;5807;51.606;7.624;2023-07-13T01:34:17;23.40;1.00
11501;DHT22;5807;51.606;7.624;2023-07-13T01:36:44;23.50;1.00
11501;DHT22;5807;51.606;7.624;2023-07-13T01:39:12;23.40;1.00
11501;DHT22;5807;51.606;7.624;2023-07-13T01:41:40;23.40;1.00
11501;DHT22;5807;51.606;7.624;2023-07-13T01:44:07;23.40;1.00
11501;DHT22;5807;51.606;7.624;2023-07-13T01:46:33;23.40;1.00
11501;DHT22;5807;51.606;7.624;2023-07-13T01:49:00;23.30;1.00
11501;DHT22;5807;51.606;7.624;2023-07-13T01:51:27;23.40;1.00
11501;DHT22;5807;51.606;7.624;2023-07-13T01:53:54;23.30;1.00
11501;DHT22;5807;51.606;7.624;2023-07-13T01:56:22;23.40;1.00
11501;DHT22;5807;51.606;7.624;2023-07-13T01:58:49;23.30;1.00
11501;DHT22;5807;51.606;7.624;2023-07-13T02:01:16;23.30;1.00
11501;DHT22;5807;51.606;7.624;2023-07-13T02:03:43;23.30;1.00
11501;DHT22;5807;51.606;7.624;2023-07-13T02:06:10;23.30;1.00
11501;DHT22;5807;51.606;7.624;2023-07-13T02:08:37;23.30;1.00
11501;DHT22;5807;51.606;7.624;2023-07-13T02:11:04;23.30;1.00
11501;DHT22;5807;51.606;7.624;2023-07-13T02:13:32;23.30;1.00
11501;DHT22;5807;51.606;7.624;2023-07-13T02:15:59;23.30;1.00
11501;DHT22;5807;51.606;7.624;2023-07-13T02:18:26;23.30;1.00
11501;DHT22;5807;51.606;7.624;2023-07-13T02:20:53;23.30;1.00
11501;DHT22;5807;51.606;7.624;2023-07-13T02:23:19;23.30;1.00
11501;DHT22;5807;51.606;7.624;2023-07-13T02:25:46;23.20;1.00
11501;DHT22;5807;51.606;7.624;2023-07-13T02:28:13;23.20;1.00
11501;DHT22;5807;51.606;7.624;2023-07-13T02:30:41;23.20;1.00
11501;DHT22;5807;51.606;7.624;2023-07-13T02:33:08;23.20;1.00
11501;DHT22;5807;51.606;7.624;2023-07-13T02:35:35;23.20;1.00
11501;DHT22;5807;51.606;7.624;2023-07-13T02:38:01;23.20;1.00
11501;DHT22;5807;51.606;7.624;2023-07-13T02:40:28;23.20;1.00
11501;DHT22;5807;51.606;7.624;2023-07-13T02:42:58;23.20;1.00
11501;DHT22;5807;51.606;7.624;2023-07-13T02:45:25;23.20;1.00
11501;DHT22;5807;51.606;7.624;2023-07-13T02:47:54;23.10;1.00
11501;DHT22;5807;51.606;7.624;2023-07-13T02:50:21;23.10;1.00
11501;DHT22;5807;51.606;7.624;2023-07-13T02:52:48;23.10;1.00
11501;DHT22;5807;51.606;7.624;2023-07-13T02:55:14;23.10;1.00
11501;DHT22;5807;51.606;7.624;2023-07-13T02:57:42;23.10;1.00
11501;DHT22;5807;51.606;7.624;2023-07-13T03:00:10;23.10;1.00
11501;DHT22;5807;51.606;7.624;2023-07-13T03:02:37;23.10;1.00
11501;DHT22;5807;51.606;7.624;2023-07-13T03:05:06;23.10;1.00
11501;DHT22;5807;51.606;7.624;2023-07-13T03:07:33;23.00;1.00
11501;DHT22;5807;51.606;7.624;2023-07-13T03:10:00;23.10;1.00
11501;DHT22;5807;51.606;7.624;2023-07-13T03:12:27;23.00;1.00
11501;DHT22;5807;51.606;7.624;2023-07-13T03:14:53;23.10;1.00
11501;DHT22;5807;51.606;7.624;2023-07-13T03:17:20;23.10;1.00
11501;DHT22;5807;51.606;7.624;2023-07-13T03:19:47;23.00;1.00
11501;DHT22;5807;51.606;7.624;2023-07-13T03:22:16;23.00;1.00
11501;DHT22;5807;51.606;7.624;2023-07-13T03:24:43;23.10;1.00
11501;DHT22;5807;51.606;7.624;2023-07-13T03:27:10;23.00;1.00
11501;DHT22;5807;51.606;7.624;2023-07-13T03:29:37;23.00;1.00
11501;DHT22;5807;51.606;7.624;2023-07-13T03:32:05;23.00;1.00
11501;DHT22;5807;51.606;7.624;2023-07-13T03:34:31;23.00;1.00
11501;DHT22;5807;51.606;7.624;2023-07-13T03:36:58;22.90;1.00
11501;DHT22;5807;51.606;7.624;2023-07-13T03:39:26;23.00;1.00
11501;DHT22;5807;51.606;7.624;2023-07-13T03:41:54;23.00;1.00
11501;DHT22;5807;51.606;7.624;2023-07-13T03:44:20;22.90;1.00
11501;DHT22;5807;51.606;7.624;2023-07-13T03:46:47;22.90;1.00
11501;DHT22;5807;51.606;7.624;2023-07-13T03:49:14;22.90;1.00
11501;DHT22;5807;51.606;7.624;2023-07-13T03:51:41;22.90;1.00
11501;DHT22;5807;51.606;7.624;2023-07-13T03:54:08;22.90;1.00
11501;DHT22;5807;51.606;7.624;2023-07-13T03:56:36;22.90;1.00
11501;DHT22;5807;51.606;7.624;2023-07-13T03:59:02;23.00;1.00
11501;DHT22;5807;51.606;7.624;2023-07-13T04:01:30;22.90;1.00
11501;DHT22;5807;51.606;7.624;2023-07-13T04:03:57;23.00;1.00
11501;DHT22;5807;51.606;7.624;2023-07-13T04:06:26;23.00;1.00
11501;DHT22;5807;51.606;7.624;2023-07-13T04:08:56;23.00;1.00
11501;DHT22;5807;51.606;7.624;2023-07-13T04:11:25;23.00;1.00
11501;DHT22;5807;51.606;7.624;2023-07-13T04:13:54;23.00;1.00
11501;DHT22;5807;51.606;7.624;2023-07-13T04:16:22;23.00;1.00
11501;DHT22;5807;51.606;7.624;2023-07-13T04:18:49;23.00;1.00
11501;DHT22;5807;51.606;7.624;2023-07-13T04:21:20;23.00;1.00
11501;DHT22;5807;51.606;7.624;2023-07-13T04:23:47;23.00;1.00
11501;DHT22;5807;51.606;7.624;2023-07-13T04:26:14;23.10;1.00
11501;DHT22;5807;51.606;7.624;2023-07-13T04:28:40;23.10;1.00
11501;DHT22;5807;51.606;7.624;2023-07-13T04:31:09;23.10;1.00
11501;DHT22;5807;51.606;7.624;2023-07-13T04:33:35;23.10;1.00
11501;DHT22;5807;51.606;7.624;2023-07-13T04:36:03;23.10;1.00
11501;DHT22;5807;51.606;7.624;2023-07-13T04:38:31;23.00;1.00
11501;DHT22;5807;51.606;7.624;2023-07-13T04:41:00;22.10;1.00
11501;DHT22;5807;51.606;7.624;2023-07-13T04:43:27;21.40;1.00
11501;DHT22;5807;51.606;7.624;2023-07-13T04:45:54;20.70;1.00
11501;DHT22;5807;51.606;7.624;2023-07-13T04:48:23;20.50;1.00
11501;DHT22;5807;51.606;7.624;2023-07-13T04:50:54;20.40;1.00
11501;DHT22;5807;51.606;7.624;2023-07-13T04:53:22;20.40;1.00
11501;DHT22;5807;51.606;7.624;2023-07-13T04:55:49;20.20;1.00
11501;DHT22;5807;51.606;7.624;2023-07-13T04:58:16;20.00;1.00
11501;DHT22;5807;51.606;7.624;2023-07-13T05:00:43;20.00;1.00
11501;DHT22;5807;51.606;7.624;2023-07-13T05:03:09;19.90;1.00
11501;DHT22;5807;51.606;7.624;2023-07-13T05:05:38;20.00;1.00
11501;DHT22;5807;51.606;7.624;2023-07-13T05:10:32;19.90;1.00
11501;DHT22;5807;51.606;7.624;2023-07-13T05:12:59;19.80;1.00
11501;DHT22;5807;51.606;7.624;2023-07-13T05:15:26;19.80;1.00
11501;DHT22;5807;51.606;7.624;2023-07-13T05:17:53;19.80;1.00
11501;DHT22;5807;51.606;7.624;2023-07-13T05:20:20;19.80;1.00
11501;DHT22;5807;51.606;7.624;2023-07-13T05:22:49;19.80;1.00
11501;DHT22;5807;51.606;7.624;2023-07-13T05:25:16;20.00;1.00
11501;DHT22;5807;51.606;7.624;2023-07-13T05:27:43;19.90;1.00
11501;DHT22;5807;51.606;7.624;2023-07-13T05:30:11;19.90;1.00
11501;DHT22;5807;51.606;7.624;2023-07-13T05:32:38;19.90;1.00
11501;DHT22;5807;51.606;7.624;2023-07-13T05:35:06;19.90;1.00
11501;DHT22;5807;51.606;7.624;2023-07-13T05:37:33;20.00;1.00
11501;DHT22;5807;51.606;7.624;2023-07-13T05:40:01;20.00;1.00
11501;DHT22;5807;51.606;7.624;2023-07-13T05:42:27;20.10;1.00
11501;DHT22;5807;51.606;7.624;2023-07-13T05:44:56;20.20;1.00
11501;DHT22;5807;51.606;7.624;2023-07-13T05:47:23;20.30;1.00
11501;DHT22;5807;51.606;7.624;2023-07-13T05:49:50;20.60;1.00
11501;DHT22;5807;51.606;7.624;2023-07-13T05:52:17;20.80;1.00
11501;DHT22;5807;51.606;7.624;2023-07-13T05:54:43;21.00;1.00
11501;DHT22;5807;51.606;7.624;2023-07-13T05:57:11;21.20;1.00
11501;DHT22;5807;51.606;7.624;2023-07-13T05:59:38;21.40;1.00
11501;DHT22;5807;51.606;7.624;2023-07-13T06:02:07;21.50;1.00
11501;DHT22;5807;51.606;7.624;2023-07-13T06:04:34;21.70;1.00
11501;DHT22;5807;51.606;7.624;2023-07-13T06:07:01;21.60;1.00
11501;DHT22;5807;51.606;7.624;2023-07-13T06:09:28;21.60;1.00
11501;DHT22;5807;51.606;7.624;2023-07-13T06:11:55;21.50;1.00
11501;DHT22;5807;51.606;7.624;2023-07-13T06:14:23;21.40;1.00
11501;DHT22;5807;51.606;7.624;2023-07-13T06:16:50;21.20;1.00
11501;DHT22;5807;51.606;7.624;2023-07-13T06:19:16;21.00;1.00
11501;DHT22;5807;51.606;7.624;2023-07-13T06:21:43;20.90;1.00
11501;DHT22;5807;51.606;7.624;2023-07-13T06:24:10;20.80;1.00
11501;DHT22;5807;51.606;7.624;2023-07-13T06:26:37;20.70;1.00
11501;DHT22;5807;51.606;7.624;2023-07-13T06:29:04;20.70;1.00
11501;DHT22;5807;51.606;7.624;2023-07-13T06:31:32;20.70;1.00
11501;DHT22;5807;51.606;7.624;2023-07-13T06:33:59;20.80;1.00
11501;DHT22;5807;51.606;7.624;2023-07-13T06:36:26;20.80;1.00
11501;DHT22;5807;51.606;7.624;2023-07-13T06:38:53;21.00;1.00
11501;DHT22;5807;51.606;7.624;2023-07-13T06:41:20;21.00;1.00
11501;DHT22;5807;51.606;7.624;2023-07-13T06:43:48;21.00;1.00
11501;DHT22;5807;51.606;7.624;2023-07-13T06:46:14;20.90;1.00
11501;DHT22;5807;51.606;7.624;2023-07-13T06:48:43;20.90;1.00
11501;DHT22;5807;51.606;7.624;2023-07-13T06:51:09;20.90;1.00
11501;DHT22;5807;51.606;7.624;2023-07-13T06:53:36;20.90;1.00
11501;DHT22;5807;51.606;7.624;2023-07-13T06:56:03;20.90;1.00
11501;DHT22;5807;51.606;7.624;2023-07-13T06:58:30;20.90;1.00
11501;DHT22;5807;51.606;7.624;2023-07-13T07:00:57;20.90;1.00
11501;DHT22;5807;51.606;7.624;2023-07-13T07:03:24;20.80;1.00
11501;DHT22;5807;51.606;7.624;2023-07-13T07:05:52;21.00;1.00
11501;DHT22;5807;51.606;7.624;2023-07-13T07:08:19;20.90;1.00
11501;DHT22;5807;51.606;7.624;2023-07-13T07:10:46;21.00;1.00
11501;DHT22;5807;51.606;7.624;2023-07-13T07:13:17;21.10;1.00
11501;DHT22;5807;51.606;7.624;2023-07-13T07:15:43;21.20;1.00
11501;DHT22;5807;51.606;7.624;2023-07-13T07:18:10;21.40;1.00
11501;DHT22;5807;51.606;7.624;2023-07-13T07:20:37;21.40;1.00
11501;DHT22;5807;51.606;7.624;2023-07-13T07:23:05;21.40;1.00
11501;DHT22;5807;51.606;7.624;2023-07-13T07:25:32;21.40;1.00
11501;DHT22;5807;51.606;7.624;2023-07-13T07:28:02;21.40;1.00
11501;DHT22;5807;51.606;7.624;2023-07-13T07:30:29;21.50;1.00
11501;DHT22;5807;51.606;7.624;2023-07-13T07:32:56;21.50;1.00
11501;DHT22;5807;51.606;7.624;2023-07-13T07:35:23;21.40;1.00
11501;DHT22;5807;51.606;7.624;2023-07-13T07:37:50;21.30;1.00
11501;DHT22;5807;51.606;7.624;2023-07-13T07:40:18;21.40;1.00
11501;DHT22;5807;51.606;7.624;2023-07-13T07:42:45;21.30;1.00
11501;DHT22;5807;51.606;7.624;2023-07-13T07:45:12;21.30;1.00
11501;DHT22;5807;51.606;7.624;2023-07-13T07:47:39;21.30;1.00
11501;DHT22;5807;51.606;7.624;2023-07-13T07:50:07;21.40;1.00
11501;DHT22;5807;51.606;7.624;2023-07-13T07:52:34;21.50;1.00
11501;DHT22;5807;51.606;7.624;2023-07-13T07:55:01;21.60;1.00
11501;DHT22;5807;51.606;7.624;2023-07-13T07:57:29;21.70;1.00
11501;DHT22;5807;51.606;7.624;2023-07-13T07:59:56;21.70;1.00
11501;DHT22;5807;51.606;7.624;2023-07-13T08:02:24;21.70;1.00
11501;DHT22;5807;51.606;7.624;2023-07-13T08:04:51;21.80;1.00
11501;DHT22;5807;51.606;7.624;2023-07-13T08:07:18;21.80;1.00
11501;DHT22;5807;51.606;7.624;2023-07-13T08:09:45;21.70;1.00
11501;DHT22;5807;51.606;7.624;2023-07-13T08:12:12;21.80;1.00
11501;DHT22;5807;51.606;7.624;2023-07-13T08:14:40;21.80;1.00
11501;DHT22;5807;51.606;7.624;2023-07-13T08:17:07;21.80;1.00
11501;DHT22;5807;51.606;7.624;2023-07-13T08:19:33;21.80;1.00
11501;DHT22;5807;51.606;7.624;2023-07-13T08:22:00;21.90;1.00
11501;DHT22;5807;51.606;7.624;2023-07-13T08:24:27;21.90;1.00
11501;DHT22;5807;51.606;7.624;2023-07-13T08:26:54;21.80;1.00
11501;DHT22;5807;51.606;7.624;2023-07-13T08:29:21;21.70;1.00
11501;DHT22;5807;51.606;7.624;2023-07-13T08:31:49;21.90;1.00
11501;DHT22;5807;51.606;7.624;2023-07-13T08:34:16;21.90;1.00
11501;DHT22;5807;51.606;7.624;2023-07-13T08:36:42;21.90;1.00
11501;DHT22;5807;51.606;7.624;2023-07-13T08:39:08;22.00;1.00
11501;DHT22;5807;51.606;7.624;2023-07-13T08:41:35;22.00;1.00
11501;DHT22;5807;51.606;7.624;2023-07-13T08:44:07;22.00;1.00
11501;DHT22;5807;51.606;7.624;2023-07-13T08:46:44;22.10;1.00
11501;DHT22;5807;51.606;7.624;2023-07-13T08:49:16;22.00;1.00
11501;DHT22;5807;51.606;7.624;2023-07-13T08:51:45;22.10;1.00
11501;DHT22;5807;51.606;7.624;2023-07-13T08:54:21;22.10;1.00
11501;DHT22;5807;51.606;7.624;2023-07-13T08:56:50;22.20;1.00
11501;DHT22;5807;51.606;7.624;2023-07-13T08:59:23;22.30;1.00
11501;DHT22;5807;51.606;7.624;2023-07-13T09:02:07;22.30;1.00
11501;DHT22;5807;51.606;7.624;2023-07-13T09:04:42;22.30;1.00
11501;DHT22;5807;51.606;7.624;2023-07-13T09:07:16;22.40;1.00
11501;DHT22;5807;51.606;7.624;2023-07-13T09:09:54;22.40;1.00
11501;DHT22;5807;51.606;7.624;2023-07-13T09:12:26;22.50;1.00
11501;DHT22;5807;51.606;7.624;2023-07-13T09:14:57;22.60;1.00
11501;DHT22;5807;51.606;7.624;2023-07-13T09:17:28;22.70;1.00
11501;DHT22;5807;51.606;7.624;2023-07-13T09:20:01;22.70;1.00
11501;DHT22;5807;51.606;7.624;2023-07-13T09:22:32;22.70;1.00
11501;DHT22;5807;51.606;7.624;2023-07-13T09:25:05;22.70;1.00
11501;DHT22;5807;51.606;7.624;2023-07-13T09:27:40;22.60;1.00
11501;DHT22;5807;51.606;7.624;2023-07-13T09:30:21;22.60;1.00
11501;DHT22;5807;51.606;7.624;2023-07-13T09:32:52;22.70;1.00
11501;DHT22;5807;51.606;7.624;2023-07-13T09:35:24;22.60;1.00
11501;DHT22;5807;51.606;7.624;2023-07-13T09:37:57;22.70;1.00
11501;DHT22;5807;51.606;7.624;2023-07-13T09:40:35;22.70;1.00
11501;DHT22;5807;51.606;7.624;2023-07-13T09:43:04;22.70;1.00
11501;DHT22;5807;51.606;7.624;2023-07-13T09:45:33;22.70;1.00
11501;DHT22;5807;51.606;7.624;2023-07-13T09:48:04;22.80;1.00
11501;DHT22;5807;51.606;7.624;2023-07-13T09:50:33;22.80;1.00
11501;DHT22;5807;51.606;7.624;2023-07-13T09:53:01;22.70;1.00
11501;DHT22;5807;51.606;7.624;2023-07-13T09:55:31;22.70;1.00
11501;DHT22;5807;51.606;7.624;2023-07-13T09:58:03;22.70;1.00
11501;DHT22;5807;51.606;7.624;2023-07-13T10:00:31;22.70;1.00
11501;DHT22;5807;51.606;7.624;2023-07-13T10:03:00;22.70;1.00
11501;DHT22;5807;51.606;7.624;2023-07-13T10:05:39;22.70;1.00
11501;DHT22;5807;51.606;7.624;2023-07-13T10:08:08;22.80;1.00
11501;DHT22;5807;51.606;7.624;2023-07-13T10:10:41;22.80;1.00
11501;DHT22;5807;51.606;7.624;2023-07-13T10:13:24;22.90;1.00
11501;DHT22;5807;51.606;7.624;2023-07-13T10:15:52;23.00;1.00
11501;DHT22;5807;51.606;7.624;2023-07-13T10:18:19;23.00;1.00
11501;DHT22;5807;51.606;7.624;2023-07-13T10:20:49;22.90;1.00
11501;DHT22;5807;51.606;7.624;2023-07-13T10:23:31;23.00;1.00
11501;DHT22;5807;51.606;7.624;2023-07-13T10:25:59;23.10;1.00
11501;DHT22;5807;51.606;7.624;2023-07-13T10:28:30;23.10;1.00
11501;DHT22;5807;51.606;7.624;2023-07-13T10:30:59;23.10;1.00
11501;DHT22;5807;51.606;7.624;2023-07-13T10:33:27;23.10;1.00
11501;DHT22;5807;51.606;7.624;2023-07-13T10:36:06;23.10;1.00
11501;DHT22;5807;51.606;7.624;2023-07-13T10:38:38;23.10;1.00
11501;DHT22;5807;51.606;7.624;2023-07-13T10:41:09;23.10;1.00
11501;DHT22;5807;51.606;7.624;2023-07-13T10:43:41;23.10;1.00
11501;DHT22;5807;51.606;7.624;2023-07-13T10:46:11;23.10;1.00
11501;DHT22;5807;51.606;7.624;2023-07-13T10:48:39;23.00;1.00
11501;DHT22;5807;51.606;7.624;2023-07-13T10:51:10;23.30;1.00
11501;DHT22;5807;51.606;7.624;2023-07-13T10:53:38;23.10;1.00
11501;DHT22;5807;51.606;7.624;2023-07-13T10:56:19;23.20;1.00
11501;DHT22;5807;51.606;7.624;2023-07-13T10:58:47;23.20;1.00
11501;DHT22;5807;51.606;7.624;2023-07-13T11:01:39;23.20;1.00
11501;DHT22;5807;51.606;7.624;2023-07-13T11:04:12;23.30;1.00
11501;DHT22;5807;51.606;7.624;2023-07-13T11:06:42;23.30;1.00
11501;DHT22;5807;51.606;7.624;2023-07-13T11:09:36;23.30;1.00
11501;DHT22;5807;51.606;7.624;2023-07-13T11:12:10;23.40;1.00
11501;DHT22;5807;51.606;7.624;2023-07-13T11:15:05;23.30;1.00
11501;DHT22;5807;51.606;7.624;2023-07-13T11:17:46;23.30;1.00
11501;DHT22;5807;51.606;7.624;2023-07-13T11:20:32;23.30;1.00
11501;DHT22;5807;51.606;7.624;2023-07-13T11:23:29;23.20;1.00
11501;DHT22;5807;51.606;7.624;2023-07-13T11:25:57;23.20;1.00
11501;DHT22;5807;51.606;7.624;2023-07-13T11:28:26;23.10;1.00
11501;DHT22;5807;51.606;7.624;2023-07-13T11:33:53;23.10;1.00
11501;DHT22;5807;51.606;7.624;2023-07-13T11:36:23;23.20;1.00
11501;DHT22;5807;51.606;7.624;2023-07-13T11:39:00;23.20;1.00
11501;DHT22;5807;51.606;7.624;2023-07-13T11:41:30;23.40;1.00
11501;DHT22;5807;51.606;7.624;2023-07-13T11:44:06;23.40;1.00
11501;DHT22;5807;51.606;7.624;2023-07-13T11:46:34;23.40;1.00
11501;DHT22;5807;51.606;7.624;2023-07-13T11:49:00;23.40;1.00
11501;DHT22;5807;51.606;7.624;2023-07-13T11:51:30;23.40;1.00
11501;DHT22;5807;51.606;7.624;2023-07-13T11:54:03;23.50;1.00
11501;DHT22;5807;51.606;7.624;2023-07-13T11:56:31;23.50;1.00
11501;DHT22;5807;51.606;7.624;2023-07-13T11:59:04;23.60;1.00
11501;DHT22;5807;51.606;7.624;2023-07-13T12:01:32;23.60;1.00
11501;DHT22;5807;51.606;7.624;2023-07-13T12:04:01;23.60;1.00
11501;DHT22;5807;51.606;7.624;2023-07-13T12:06:30;23.50;1.00
11501;DHT22;5807;51.606;7.624;2023-07-13T12:09:00;23.60;1.00
11501;DHT22;5807;51.606;7.624;2023-07-13T12:11:29;23.70;1.00
11501;DHT22;5807;51.606;7.624;2023-07-13T12:13:56;23.60;1.00
11501;DHT22;5807;51.606;7.624;2023-07-13T12:16:27;23.60;1.00
11501;DHT22;5807;51.606;7.624;2023-07-13T12:18:56;23.60;1.00
11501;DHT22;5807;51.606;7.624;2023-07-13T12:21:29;23.60;1.00
11501;DHT22;5807;51.606;7.624;2023-07-13T12:23:56;23.70;1.00
11501;DHT22;5807;51.606;7.624;2023-07-13T12:26:25;23.60;1.00
11501;DHT22;5807;51.606;7.624;2023-07-13T12:28:53;23.60;1.00
11501;DHT22;5807;51.606;7.624;2023-07-13T12:31:29;23.70;1.00
11501;DHT22;5807;51.606;7.624;2023-07-13T12:33:59;23.70;1.00
11501;DHT22;5807;51.606;7.624;2023-07-13T12:36:26;23.70;1.00
11501;DHT22;5807;51.606;7.624;2023-07-13T12:38:57;23.70;1.00
11501;DHT22;5807;51.606;7.624;2023-07-13T12:41:31;23.70;1.00
11501;DHT22;5807;51.606;7.624;2023-07-13T12:43:59;23.80;1.00
11501;DHT22;5807;51.606;7.624;2023-07-13T12:46:26;23.90;1.00
11501;DHT22;5807;51.606;7.624;2023-07-13T12:48:54;23.90;1.00
11501;DHT22;5807;51.606;7.624;2023-07-13T12:51:25;23.80;1.00
11501;DHT22;5807;51.606;7.624;2023-07-13T12:54:05;23.80;1.00
11501;DHT22;5807;51.606;7.624;2023-07-13T12:56:34;23.90;1.00
11501;DHT22;5807;51.606;7.624;2023-07-13T12:59:03;23.80;1.00
11501;DHT22;5807;51.606;7.624;2023-07-13T13:01:33;23.80;1.00
11501;DHT22;5807;51.606;7.624;2023-07-13T13:04:03;23.90;1.00
11501;DHT22;5807;51.606;7.624;2023-07-13T13:06:32;23.90;1.00
11501;DHT22;5807;51.606;7.624;2023-07-13T13:09:01;23.90;1.00
11501;DHT22;5807;51.606;7.624;2023-07-13T13:11:31;23.90;1.00
11501;DHT22;5807;51.606;7.624;2023-07-13T13:13:59;23.90;1.00
11501;DHT22;5807;51.606;7.624;2023-07-13T13:16:30;23.90;1.00
11501;DHT22;5807;51.606;7.624;2023-07-13T13:19:00;23.90;1.00
11501;DHT22;5807;51.606;7.624;2023-07-13T13:21:30;23.90;1.00
11501;DHT22;5807;51.606;7.624;2023-07-13T13:23:58;23.90;1.00
11501;DHT22;5807;51.606;7.624;2023-07-13T13:26:24;23.90;1.00
11501;DHT22;5807;51.606;7.624;2023-07-13T13:28:51;23.90;1.00
11501;DHT22;5807;51.606;7.624;2023-07-13T13:31:20;23.90;1.00
11501;DHT22;5807;51.606;7.624;2023-07-13T13:33:47;23.80;1.00
11501;DHT22;5807;51.606;7.624;2023-07-13T13:36:16;23.80;1.00
11501;DHT22;5807;51.606;7.624;2023-07-13T13:38:43;23.70;1.00
11501;DHT22;5807;51.606;7.624;2023-07-13T13:41:12;23.70;1.00
11501;DHT22;5807;51.606;7.624;2023-07-13T13:43:39;23.80;1.00
11501;DHT22;5807;51.606;7.624;2023-07-13T13:46:16;23.70;1.00
11501;DHT22;5807;51.606;7.624;2023-07-13T13:48:45;23.60;1.00
11501;DHT22;5807;51.606;7.624;2023-07-13T13:51:15;23.60;1.00
11501;DHT22;5807;51.606;7.624;2023-07-13T13:53:42;23.50;1.00
11501;DHT22;5807;51.606;7.624;2023-07-13T13:56:09;23.50;1.00
11501;DHT22;5807;51.606;7.624;2023-07-13T13:58:36;23.50;1.00
11501;DHT22;5807;51.606;7.624;2023-07-13T14:01:03;23.60;1.00
11501;DHT22;5807;51.606;7.624;2023-07-13T14:03:33;23.50;1.00
11501;DHT22;5807;51.606;7.624;2023-07-13T14:06:01;23.60;1.00
11501;DHT22;5807;51.606;7.624;2023-07-13T14:08:28;23.50;1.00
11501;DHT22;5807;51.606;7.624;2023-07-13T14:10:57;23.40;1.00
11501;DHT22;5807;51.606;7.624;2023-07-13T14:13:28;23.40;1.00
11501;DHT22;5807;51.606;7.624;2023-07-13T14:15:56;23.40;1.00
11501;DHT22;5807;51.606;7.624;2023-07-13T14:18:24;23.30;1.00
11501;DHT22;5807;51.606;7.624;2023-07-13T14:20:51;23.30;1.00
11501;DHT22;5807;51.606;7.624;2023-07-13T14:23:20;23.20;1.00
11501;DHT22;5807;51.606;7.624;2023-07-13T14:25:47;23.10;1.00
11501;DHT22;5807;51.606;7.624;2023-07-13T14:28:21;23.10;1.00
11501;DHT22;5807;51.606;7.624;2023-07-13T14:30:48;23.10;1.00
11501;DHT22;5807;51.606;7.624;2023-07-13T14:33:15;23.00;1.00
11501;DHT22;5807;51.606;7.624;2023-07-13T14:35:42;23.00;1.00
11501;DHT22;5807;51.606;7.624;2023-07-13T14:38:12;23.10;1.00
11501;DHT22;5807;51.606;7.624;2023-07-13T14:40:41;23.10;1.00
11501;DHT22;5807;51.606;7.624;2023-07-13T14:43:10;23.30;1.00
11501;DHT22;5807;51.606;7.624;2023-07-13T14:45:40;23.30;1.00
11501;DHT22;5807;51.606;7.624;2023-07-13T14:48:15;23.40;1.00
11501;DHT22;5807;51.606;7.624;2023-07-13T14:50:43;23.50;1.00
11501;DHT22;5807;51.606;7.624;2023-07-13T14:53:10;23.60;1.00
11501;DHT22;5807;51.606;7.624;2023-07-13T14:55:37;23.60;1.00
11501;DHT22;5807;51.606;7.624;2023-07-13T14:58:06;23.60;1.00
11501;DHT22;5807;51.606;7.624;2023-07-13T15:00:33;23.70;1.00
11501;DHT22;5807;51.606;7.624;2023-07-13T15:03:00;23.70;1.00
11501;DHT22;5807;51.606;7.624;2023-07-13T15:05:31;23.70;1.00
11501;DHT22;5807;51.606;7.624;2023-07-13T15:08:00;23.70;1.00
11501;DHT22;5807;51.606;7.624;2023-07-13T15:10:28;23.50;1.00
11501;DHT22;5807;51.606;7.624;2023-07-13T15:12:59;23.20;1.00
11501;DHT22;5807;51.606;7.624;2023-07-13T15:15:29;22.80;1.00
11501;DHT22;5807;51.606;7.624;2023-07-13T15:17:57;22.50;1.00
11501;DHT22;5807;51.606;7.624;2023-07-13T15:20:26;22.40;1.00
11501;DHT22;5807;51.606;7.624;2023-07-13T15:22:54;22.20;1.00
11501;DHT22;5807;51.606;7.624;2023-07-13T15:25:23;22.00;1.00
11501;DHT22;5807;51.606;7.624;2023-07-13T15:27:51;21.80;1.00
11501;DHT22;5807;51.606;7.624;2023-07-13T15:30:18;21.70;1.00
11501;DHT22;5807;51.606;7.624;2023-07-13T15:32:47;21.60;1.00
11501;DHT22;5807;51.606;7.624;2023-07-13T15:35:15;21.50;1.00
11501;DHT22;5807;51.606;7.624;2023-07-13T15:37:43;21.50;1.00
11501;DHT22;5807;51.606;7.624;2023-07-13T15:40:11;21.50;1.00
11501;DHT22;5807;51.606;7.624;2023-07-13T15:42:39;21.50;1.00
11501;DHT22;5807;51.606;7.624;2023-07-13T15:45:16;21.50;1.00
11501;DHT22;5807;51.606;7.624;2023-07-13T15:47:43;21.60;1.00
11501;DHT22;5807;51.606;7.624;2023-07-13T15:50:16;21.70;1.00
11501;DHT22;5807;51.606;7.624;2023-07-13T15:52:47;21.90;1.00
11501;DHT22;5807;51.606;7.624;2023-07-13T15:55:15;22.00;1.00
11501;DHT22;5807;51.606;7.624;2023-07-13T15:57:46;22.00;1.00
11501;DHT22;5807;51.606;7.624;2023-07-13T16:00:17;22.10;1.00
11501;DHT22;5807;51.606;7.624;2023-07-13T16:02:45;22.10;1.00
11501;DHT22;5807;51.606;7.624;2023-07-13T16:05:15;22.20;1.00
11501;DHT22;5807;51.606;7.624;2023-07-13T16:07:43;22.30;1.00
11501;DHT22;5807;51.606;7.624;2023-07-13T16:10:15;22.10;1.00
11501;DHT22;5807;51.606;7.624;2023-07-13T16:12:42;22.10;1.00
11501;DHT22;5807;51.606;7.624;2023-07-13T16:15:13;22.00;1.00
11501;DHT22;5807;51.606;7.624;2023-07-13T16:17:40;22.10;1.00